In Rescue
 
Open Full Screen Window  High Contrast Mode
November 27, 2020 11:30 PM CST
Weather Information
Wind Direction
  ---
Wind Speed
  00 kt (0 mph)
Wind Gust
  00 kt (0 mph)
Altimeter
30.00 in
Visibility
10 SM
Temperature
-03° C
27° F
Dewpoint
-05° C
23° F
Humidity
86%
1hr Rain Fall
00.00 in.
24hr Rain Fall
00.00 in.
Sky Condition
Clear
VFR

METAR KJMR 280530Z AUTO 00000KT 10SM CLR M03/M05 A3000 RMK AO2

FAA Disclaimer: The data displayed is for advisory purposes only and is not to be used for flight planning or operations.